createdAt,value
2023-03-07T00:01:10.719Z,7.00
2023-03-07T00:03:39.127Z,7.63
2023-03-07T00:06:11.978Z,8.60
2023-03-07T00:08:39.541Z,9.00
2023-03-07T00:11:09.076Z,9.20
2023-03-07T00:13:42.459Z,9.45
2023-03-07T00:16:14.509Z,8.80
2023-03-07T00:18:42.840Z,9.20
2023-03-07T00:21:13.645Z,11.13
2023-03-07T00:23:43.671Z,10.50
2023-03-07T00:26:23.106Z,12.75
2023-03-07T00:28:52.730Z,11.73
2023-03-07T00:31:21.048Z,11.80
2023-03-07T00:33:49.172Z,11.27
2023-03-07T00:36:21.866Z,11.77
2023-03-07T00:38:50.006Z,11.32
2023-03-07T00:41:20.762Z,10.05
2023-03-07T00:43:48.557Z,10.73
2023-03-07T00:46:17.478Z,11.57
2023-03-07T00:48:45.306Z,12.68
2023-03-07T00:51:14.809Z,12.80
2023-03-07T00:53:42.840Z,12.40
2023-03-07T00:56:22.518Z,12.60
2023-03-07T00:58:50.736Z,15.13
2023-03-07T01:01:21.851Z,13.95
2023-03-07T01:03:50.259Z,14.23
2023-03-07T01:06:20.266Z,14.60
2023-03-07T01:08:47.780Z,16.80
2023-03-07T01:11:15.173Z,15.10
2023-03-07T01:13:42.533Z,19.73
2023-03-07T01:16:42.508Z,17.15
2023-03-07T01:19:12.875Z,15.98
2023-03-07T01:21:44.587Z,16.08
2023-03-07T01:24:14.993Z,16.00
2023-03-07T01:26:42.759Z,17.38
2023-03-07T01:29:11.788Z,15.93
2023-03-07T01:31:39.289Z,17.70
2023-03-07T01:34:07.032Z,18.42
2023-03-07T01:36:36.250Z,16.83
2023-03-07T01:39:14.870Z,17.73
2023-03-07T01:41:43.643Z,18.65
2023-03-07T01:44:26.190Z,21.25
2023-03-07T01:46:55.554Z,16.52
2023-03-07T01:49:46.498Z,17.30
2023-03-07T01:52:19.080Z,20.15
2023-03-07T01:54:51.416Z,17.80
2023-03-07T01:57:22.062Z,19.52
2023-03-07T01:59:55.139Z,18.05
2023-03-07T02:02:23.188Z,18.15
2023-03-07T02:05:06.117Z,18.10
2023-03-07T02:07:38.205Z,16.75
2023-03-07T02:10:11.211Z,18.63
2023-03-07T02:12:39.663Z,18.65
2023-03-07T02:15:10.245Z,18.90
2023-03-07T02:17:37.809Z,18.60
2023-03-07T02:20:23.654Z,17.48
2023-03-07T02:22:51.370Z,18.48
2023-03-07T02:25:37.485Z,19.02
2023-03-07T02:28:05.697Z,20.77
2023-03-07T02:30:32.938Z,17.85
2023-03-07T02:33:00.122Z,17.70
2023-03-07T02:35:27.441Z,19.02
2023-03-07T02:38:00.493Z,17.63
2023-03-07T02:40:31.028Z,17.00
2023-03-07T02:43:01.397Z,17.75
2023-03-07T02:45:28.855Z,15.77
2023-03-07T02:47:55.975Z,15.55
2023-03-07T02:50:23.093Z,17.25
2023-03-07T02:52:50.522Z,16.35
2023-03-07T02:55:17.824Z,15.30
2023-03-07T02:57:45.189Z,16.60
2023-03-07T03:00:13.442Z,15.32
2023-03-07T03:02:40.917Z,16.13
2023-03-07T03:05:08.600Z,17.75
2023-03-07T03:07:35.763Z,13.40
2023-03-07T03:10:04.009Z,14.73
2023-03-07T03:12:31.229Z,17.63
2023-03-07T03:14:58.559Z,15.82
2023-03-07T03:17:25.772Z,16.95
2023-03-07T03:19:52.963Z,16.73
2023-03-07T03:22:20.850Z,14.32
2023-03-07T03:24:48.220Z,14.30
2023-03-07T03:27:15.494Z,13.85
2023-03-07T03:29:43.071Z,14.00
2023-03-07T03:32:10.524Z,15.75
2023-03-07T03:34:38.559Z,14.02
2023-03-07T03:37:05.732Z,15.40
2023-03-07T03:39:32.947Z,14.70
2023-03-07T03:42:00.301Z,12.32
2023-03-07T03:44:27.520Z,13.43
2023-03-07T03:46:56.004Z,12.85
2023-03-07T03:49:23.310Z,12.43
2023-03-07T03:51:50.523Z,13.02
2023-03-07T03:54:17.923Z,11.70
2023-03-07T03:56:47.713Z,11.77
2023-03-07T03:59:15.151Z,12.40
2023-03-07T04:01:42.567Z,11.88
2023-03-07T04:04:10.039Z,13.23
2023-03-07T04:06:37.178Z,12.38
2023-03-07T04:09:05.691Z,12.93
2023-03-07T04:11:33.515Z,11.25
2023-03-07T04:14:00.611Z,13.77
2023-03-07T04:16:28.186Z,12.73
2023-03-07T04:18:55.792Z,11.70
2023-03-07T04:21:23.680Z,13.57
2023-03-07T04:23:55.708Z,12.20
2023-03-07T04:26:23.533Z,12.65
2023-03-07T04:28:51.054Z,11.98
2023-03-07T04:31:19.611Z,12.13
2023-03-07T04:33:48.107Z,13.27
2023-03-07T04:36:16.772Z,10.68
2023-03-07T04:38:44.824Z,10.25
2023-03-07T04:41:15.303Z,11.35
2023-03-07T04:43:43.122Z,10.25
2023-03-07T04:46:12.203Z,11.75
2023-03-07T04:48:39.501Z,10.30
2023-03-07T04:51:07.120Z,11.70
2023-03-07T04:53:34.535Z,11.43
2023-03-07T04:56:17.025Z,12.38
2023-03-07T04:58:45.212Z,11.55
2023-03-07T05:01:12.891Z,11.25
2023-03-07T05:03:40.189Z,10.68
2023-03-07T05:06:10.825Z,13.30
2023-03-07T05:08:38.361Z,10.95
2023-03-07T05:11:06.039Z,10.45
2023-03-07T05:13:33.494Z,10.80
2023-03-07T05:16:01.332Z,11.32
2023-03-07T05:18:31.796Z,11.93
2023-03-07T05:20:59.461Z,13.75
2023-03-07T05:23:26.744Z,10.32
2023-03-07T05:25:54.151Z,10.50
2023-03-07T05:28:21.404Z,12.35
2023-03-07T05:30:49.037Z,11.57
2023-03-07T05:33:16.521Z,9.85
2023-03-07T05:35:44.035Z,10.95
2023-03-07T05:38:11.464Z,10.27
2023-03-07T05:40:57.228Z,9.80
2023-03-07T05:43:26.816Z,8.90
2023-03-07T05:45:54.176Z,7.43
2023-03-07T05:48:21.504Z,9.02
2023-03-07T05:50:48.765Z,8.15
2023-03-07T05:53:16.348Z,7.90
2023-03-07T05:55:44.031Z,6.28
2023-03-07T05:58:11.343Z,6.85
2023-03-07T06:00:38.539Z,6.63
2023-03-07T06:03:06.010Z,5.43
2023-03-07T06:05:33.205Z,5.22
2023-03-07T06:08:00.632Z,8.00
2023-03-07T06:10:28.243Z,5.03
2023-03-07T06:12:56.344Z,6.35
2023-03-07T06:15:25.591Z,5.10
2023-03-07T06:17:56.040Z,5.50
2023-03-07T06:20:23.301Z,4.10
2023-03-07T06:22:50.662Z,4.88
2023-03-07T06:25:21.972Z,4.15
2023-03-07T06:27:49.707Z,3.53
2023-03-07T06:30:17.057Z,3.58
2023-03-07T06:32:44.438Z,3.22
2023-03-07T06:35:11.598Z,3.65
2023-03-07T06:37:38.949Z,2.53
2023-03-07T06:40:06.961Z,2.50
2023-03-07T06:42:34.250Z,3.38
2023-03-07T06:45:01.761Z,3.65
2023-03-07T06:47:29.341Z,2.75
2023-03-07T06:49:56.483Z,2.83
2023-03-07T06:52:24.051Z,2.58
2023-03-07T06:54:51.399Z,3.28
2023-03-07T06:57:18.692Z,2.22
2023-03-07T06:59:46.133Z,2.33
2023-03-07T07:02:15.331Z,1.98
2023-03-07T07:04:42.658Z,3.25
2023-03-07T07:07:10.077Z,1.90
2023-03-07T07:09:37.316Z,2.25
2023-03-07T07:12:06.188Z,2.25
2023-03-07T07:14:34.790Z,3.58
2023-03-07T07:17:02.088Z,1.50
2023-03-07T07:19:29.388Z,2.35
2023-03-07T07:21:57.492Z,1.92
2023-03-07T07:24:24.844Z,1.40
2023-03-07T07:26:52.323Z,1.98
2023-03-07T07:29:20.019Z,2.05
2023-03-07T07:31:47.245Z,1.92
2023-03-07T07:34:14.442Z,2.00
2023-03-07T07:36:44.682Z,1.63
2023-03-07T07:39:13.664Z,1.70
2023-03-07T07:41:41.346Z,1.50
2023-03-07T07:44:08.881Z,2.97
2023-03-07T07:46:36.124Z,1.95
2023-03-07T07:49:03.950Z,1.60
2023-03-07T07:51:31.167Z,2.38
2023-03-07T07:53:58.473Z,1.75
2023-03-07T07:56:26.035Z,2.30
2023-03-07T07:58:53.336Z,1.60
2023-03-07T08:01:25.339Z,1.40
2023-03-07T08:03:53.090Z,1.40
2023-03-07T08:06:26.365Z,1.60
2023-03-07T08:08:54.797Z,1.25
2023-03-07T08:11:23.528Z,2.80
2023-03-07T08:13:50.903Z,1.58
2023-03-07T08:16:26.816Z,1.60
2023-03-07T08:18:56.552Z,1.20
2023-03-07T08:21:25.655Z,2.08
2023-03-07T08:23:54.494Z,2.22
2023-03-07T08:26:22.253Z,1.58
2023-03-07T08:28:49.860Z,1.15
2023-03-07T08:31:22.586Z,1.35
2023-03-07T08:33:50.995Z,1.27
2023-03-07T08:36:18.608Z,1.08
2023-03-07T08:38:52.668Z,1.40
2023-03-07T08:41:21.916Z,1.55
2023-03-07T08:43:49.648Z,2.70
2023-03-07T08:46:17.555Z,2.15
2023-03-07T08:48:44.768Z,1.10
2023-03-07T08:51:17.085Z,1.48
2023-03-07T08:53:46.467Z,1.00
2023-03-07T08:56:19.037Z,1.55
2023-03-07T08:58:46.641Z,1.40
2023-03-07T09:01:13.893Z,1.80
2023-03-07T09:03:41.041Z,1.40
2023-03-07T09:06:08.684Z,1.02
2023-03-07T09:08:35.997Z,1.35
2023-03-07T09:11:05.672Z,3.60
2023-03-07T09:13:36.227Z,1.75
2023-03-07T09:16:08.497Z,2.08
2023-03-07T09:18:36.611Z,1.40
2023-03-07T09:21:05.810Z,2.40
2023-03-07T09:23:33.597Z,1.45
2023-03-07T09:26:02.024Z,1.10
2023-03-07T09:28:29.569Z,1.35
2023-03-07T09:30:56.875Z,0.82
2023-03-07T09:33:24.260Z,1.27
2023-03-07T09:35:51.630Z,1.15
2023-03-07T09:38:19.500Z,2.05
2023-03-07T09:40:48.333Z,1.58
2023-03-07T09:43:26.354Z,0.88
2023-03-07T09:46:16.709Z,1.33
2023-03-07T09:49:09.614Z,1.50
2023-03-07T09:51:40.274Z,1.15
2023-03-07T09:54:13.693Z,1.10
2023-03-07T09:56:53.116Z,1.77
2023-03-07T09:59:54.425Z,1.83
2023-03-07T10:02:39.529Z,1.35
2023-03-07T10:05:26.007Z,1.25
2023-03-07T10:07:53.834Z,1.30
2023-03-07T10:10:27.593Z,1.30
2023-03-07T10:13:08.903Z,1.52
2023-03-07T10:15:54.842Z,1.60
2023-03-07T10:18:26.647Z,1.20
2023-03-07T10:21:18.647Z,1.15
2023-03-07T10:24:24.108Z,1.55
2023-03-07T10:27:04.666Z,1.70
2023-03-07T10:29:48.419Z,1.20
2023-03-07T10:32:29.881Z,1.20
2023-03-07T10:35:05.381Z,1.10
2023-03-07T10:38:00.728Z,1.42
2023-03-07T10:41:15.488Z,1.45
2023-03-07T10:43:44.008Z,1.50
2023-03-07T10:46:27.066Z,1.33
2023-03-07T10:49:15.072Z,1.10
2023-03-07T10:52:13.252Z,1.52
2023-03-07T10:54:40.605Z,2.00
2023-03-07T10:57:14.530Z,2.33
2023-03-07T10:59:48.719Z,1.10
2023-03-07T11:02:33.190Z,0.60
2023-03-07T11:05:01.277Z,0.40
2023-03-07T11:07:30.530Z,0.50
2023-03-07T11:09:59.592Z,0.30
2023-03-07T11:12:29.824Z,0.50
2023-03-07T11:15:21.944Z,0.50
2023-03-07T11:17:50.826Z,0.50
2023-03-07T11:20:30.815Z,0.50
2023-03-07T11:23:17.202Z,0.80
2023-03-07T11:25:45.147Z,2.38
2023-03-07T11:28:36.434Z,0.90
2023-03-07T11:31:06.592Z,1.48
2023-03-07T11:34:14.099Z,0.50
2023-03-07T11:36:44.406Z,0.68
2023-03-07T11:39:20.473Z,0.73
2023-03-07T11:41:54.091Z,0.60
2023-03-07T11:44:56.146Z,0.55
2023-03-07T11:47:35.621Z,0.57
2023-03-07T11:50:31.521Z,0.90
2023-03-07T11:53:07.550Z,0.88
2023-03-07T11:55:50.033Z,1.20
2023-03-07T11:58:29.784Z,0.85
2023-03-07T12:01:01.916Z,0.45
2023-03-07T12:03:52.288Z,0.73
2023-03-07T12:06:50.301Z,1.00
2023-03-07T12:09:40.321Z,1.10
2023-03-07T12:12:39.440Z,0.90
2023-03-07T12:15:31.245Z,0.90
2023-03-07T12:18:26.098Z,1.35
2023-03-07T12:21:18.002Z,1.35
2023-03-07T12:23:52.280Z,2.25
2023-03-07T12:26:36.859Z,2.90
2023-03-07T12:29:16.368Z,1.75
2023-03-07T12:31:48.593Z,1.10
2023-03-07T12:34:39.930Z,1.65
2023-03-07T12:37:22.460Z,1.02
2023-03-07T12:39:58.774Z,1.42
2023-03-07T12:42:47.627Z,2.47
2023-03-07T12:45:22.164Z,1.75
2023-03-07T12:47:58.204Z,1.52
2023-03-07T12:50:47.286Z,0.90
2023-03-07T12:53:43.016Z,1.80
2023-03-07T12:56:19.245Z,1.10
2023-03-07T12:59:13.418Z,2.90
2023-03-07T13:02:12.219Z,1.52
2023-03-07T13:04:42.876Z,1.75
2023-03-07T13:07:27.854Z,1.95
2023-03-07T13:10:01.300Z,1.23
2023-03-07T13:12:29.769Z,1.85
2023-03-07T13:14:58.498Z,1.50
2023-03-07T13:17:32.113Z,1.13
2023-03-07T13:20:30.070Z,1.58
2023-03-07T13:23:02.396Z,1.25
2023-03-07T13:25:43.143Z,2.45
2023-03-07T13:28:32.315Z,2.28
2023-03-07T13:31:20.877Z,1.23
2023-03-07T13:33:51.213Z,1.10
2023-03-07T13:36:39.004Z,3.08
2023-03-07T13:39:37.607Z,0.77
2023-03-07T13:42:05.962Z,1.25
2023-03-07T13:44:42.064Z,1.17
2023-03-07T13:47:44.160Z,1.30
2023-03-07T13:50:49.679Z,0.90
2023-03-07T13:53:40.165Z,1.33
2023-03-07T13:56:17.165Z,1.58
2023-03-07T13:59:04.370Z,0.95
2023-03-07T14:01:45.524Z,0.73
2023-03-07T14:04:38.992Z,1.13
2023-03-07T14:07:21.783Z,1.40
2023-03-07T14:09:57.528Z,1.55
2023-03-07T14:12:43.840Z,0.77
2023-03-07T14:15:43.041Z,1.85
2023-03-07T14:18:28.298Z,1.20
2023-03-07T14:21:26.357Z,0.77
2023-03-07T14:24:05.934Z,0.82
2023-03-07T14:26:50.134Z,1.05
2023-03-07T14:29:23.657Z,0.80
2023-03-07T14:31:58.955Z,1.65
2023-03-07T14:37:02.036Z,0.88
2023-03-07T14:40:08.907Z,0.80
2023-03-07T14:43:04.802Z,3.30
2023-03-07T14:45:59.781Z,0.75
2023-03-07T14:48:54.164Z,0.80
2023-03-07T14:51:26.175Z,0.85
2023-03-07T14:53:53.832Z,1.02
2023-03-07T14:56:35.052Z,0.70
2023-03-07T14:59:04.035Z,0.95
2023-03-07T15:01:35.656Z,1.00
2023-03-07T15:04:03.881Z,1.17
2023-03-07T15:06:31.915Z,0.80
2023-03-07T15:09:01.617Z,1.80
2023-03-07T15:11:48.432Z,0.85
2023-03-07T15:14:23.075Z,0.70
2023-03-07T15:16:53.430Z,1.08
2023-03-07T15:19:38.980Z,0.98
2023-03-07T15:22:17.334Z,1.25
2023-03-07T15:24:46.905Z,0.60
2023-03-07T15:27:18.835Z,0.95
2023-03-07T15:29:54.479Z,1.95
2023-03-07T15:32:37.818Z,1.20
2023-03-07T15:35:15.103Z,1.17
2023-03-07T15:38:01.791Z,1.58
2023-03-07T15:40:36.831Z,0.60
2023-03-07T15:43:04.730Z,0.95
2023-03-07T15:46:02.890Z,2.72
2023-03-07T15:48:48.950Z,0.90
2023-03-07T15:51:19.154Z,2.15
2023-03-07T15:53:58.768Z,1.50
2023-03-07T15:56:37.719Z,0.90
2023-03-07T15:59:17.377Z,1.13
2023-03-07T16:01:44.667Z,0.57
2023-03-07T16:04:38.585Z,0.68
2023-03-07T16:07:08.243Z,0.55
2023-03-07T16:09:35.363Z,0.88
2023-03-07T16:12:02.605Z,0.90
2023-03-07T16:14:32.828Z,0.50
2023-03-07T16:17:03.986Z,0.70
2023-03-07T16:19:31.404Z,0.63
2023-03-07T16:21:59.075Z,0.68
2023-03-07T16:24:26.380Z,0.63
2023-03-07T16:26:53.897Z,1.75
2023-03-07T16:29:23.157Z,0.55
2023-03-07T16:31:50.555Z,0.70
2023-03-07T16:34:20.474Z,0.68
2023-03-07T16:36:48.385Z,0.80
2023-03-07T16:39:16.522Z,0.65
2023-03-07T16:41:47.551Z,1.30
2023-03-07T16:44:20.610Z,1.20
2023-03-07T16:46:58.004Z,1.08
2023-03-07T16:49:25.148Z,1.27
2023-03-07T16:52:04.529Z,1.95
2023-03-07T16:54:34.161Z,0.60
2023-03-07T16:57:03.036Z,0.88
2023-03-07T16:59:36.365Z,1.15
2023-03-07T17:02:21.383Z,0.88
2023-03-07T17:04:48.824Z,0.80
2023-03-07T17:07:22.165Z,0.80
2023-03-07T17:09:54.096Z,1.23
2023-03-07T17:12:23.257Z,0.85
2023-03-07T17:14:50.785Z,0.60
2023-03-07T17:17:22.805Z,0.75
2023-03-07T17:19:50.885Z,0.50
2023-03-07T17:22:20.299Z,0.60
2023-03-07T17:24:47.465Z,1.08
2023-03-07T17:27:14.737Z,0.82
2023-03-07T17:29:54.633Z,0.70
2023-03-07T17:32:24.443Z,1.13
2023-03-07T17:34:51.835Z,0.80
2023-03-07T17:37:19.243Z,0.65
2023-03-07T17:39:46.631Z,0.60
2023-03-07T17:42:13.876Z,0.32
2023-03-07T17:44:41.959Z,0.90
2023-03-07T17:47:09.299Z,0.50
2023-03-07T17:49:38.393Z,0.80
2023-03-07T17:52:07.265Z,0.60
2023-03-07T17:54:34.897Z,0.60
2023-03-07T17:57:03.175Z,0.80
2023-03-07T17:59:33.157Z,1.08
2023-03-07T18:02:00.885Z,1.48
2023-03-07T18:04:31.309Z,0.75
2023-03-07T18:06:59.958Z,0.50
2023-03-07T18:09:27.341Z,0.70
2023-03-07T18:11:54.803Z,1.20
2023-03-07T18:14:22.442Z,0.95
2023-03-07T18:16:50.031Z,1.55
2023-03-07T18:19:26.283Z,0.93
2023-03-07T18:21:56.525Z,0.70
2023-03-07T18:24:32.342Z,1.50
2023-03-07T18:26:59.988Z,0.52
2023-03-07T18:29:29.116Z,0.60
2023-03-07T18:31:57.080Z,0.70
2023-03-07T18:34:25.273Z,0.50
2023-03-07T18:36:54.606Z,0.45
2023-03-07T18:39:23.498Z,0.68
2023-03-07T18:41:51.587Z,0.82
2023-03-07T18:44:19.946Z,0.63
2023-03-07T18:46:47.377Z,0.60
2023-03-07T18:49:15.112Z,0.50
2023-03-07T18:51:46.164Z,0.93
2023-03-07T18:54:14.412Z,1.00
2023-03-07T18:56:49.294Z,1.10
2023-03-07T18:59:22.673Z,1.40
2023-03-07T19:01:50.483Z,44.30
2023-03-07T19:04:18.683Z,347.65
2023-03-07T19:06:47.663Z,717.45
2023-03-07T19:09:20.410Z,266.20
2023-03-07T19:11:51.462Z,158.23
2023-03-07T19:14:18.839Z,69.28
2023-03-07T19:16:46.244Z,35.65
2023-03-07T19:19:13.606Z,32.15
2023-03-07T19:21:40.859Z,21.70
2023-03-07T19:24:11.707Z,28.05
2023-03-07T19:26:39.083Z,11.02
2023-03-07T19:29:06.340Z,3.90
2023-03-07T19:31:36.786Z,3.65
2023-03-07T19:34:06.719Z,2.75
2023-03-07T19:36:35.960Z,1.20
2023-03-07T19:39:04.036Z,1.35
2023-03-07T19:41:32.613Z,3.25
2023-03-07T19:44:01.332Z,1.90
2023-03-07T19:46:28.687Z,0.90
2023-03-07T19:48:56.532Z,1.08
2023-03-07T19:51:27.256Z,2.67
2023-03-07T19:53:57.309Z,1.33
2023-03-07T19:56:27.889Z,0.93
2023-03-07T19:58:55.512Z,1.10
2023-03-07T20:01:23.648Z,1.05
2023-03-07T20:03:51.362Z,0.75
2023-03-07T20:06:30.371Z,1.85
2023-03-07T20:09:28.121Z,1.00
2023-03-07T20:11:56.557Z,1.13
2023-03-07T20:14:24.049Z,1.80
2023-03-07T20:16:51.419Z,1.20
2023-03-07T20:19:23.562Z,5.47
2023-03-07T20:21:51.172Z,1.25
2023-03-07T20:24:24.452Z,1.27
2023-03-07T20:26:51.803Z,1.83
2023-03-07T20:29:19.074Z,1.20
2023-03-07T20:31:51.133Z,1.90
2023-03-07T20:34:21.482Z,1.88
2023-03-07T20:36:49.739Z,1.15
2023-03-07T20:39:17.308Z,1.30
2023-03-07T20:41:44.856Z,1.30
2023-03-07T20:44:14.419Z,1.63
2023-03-07T20:46:42.205Z,3.65
2023-03-07T20:49:18.522Z,1.73
2023-03-07T20:51:46.081Z,1.30
2023-03-07T20:54:16.416Z,1.58
2023-03-07T20:56:44.895Z,1.02
2023-03-07T20:59:15.794Z,0.85
2023-03-07T21:01:43.887Z,1.08
2023-03-07T21:04:15.313Z,1.08
2023-03-07T21:06:44.384Z,1.13
2023-03-07T21:09:12.976Z,1.00
2023-03-07T21:11:48.218Z,1.00
2023-03-07T21:14:17.188Z,2.00
2023-03-07T21:16:44.667Z,0.77
2023-03-07T21:19:12.392Z,0.95
2023-03-07T21:21:39.980Z,1.25
2023-03-07T21:24:08.945Z,1.00
2023-03-07T21:26:36.703Z,1.13
2023-03-07T21:29:04.759Z,1.05
2023-03-07T21:31:34.859Z,1.10
2023-03-07T21:34:05.220Z,1.25
2023-03-07T21:36:33.426Z,1.63
2023-03-07T21:39:02.208Z,1.05
2023-03-07T21:41:29.637Z,1.10
2023-03-07T21:44:00.957Z,1.20
2023-03-07T21:46:28.840Z,1.02
2023-03-07T21:48:59.550Z,2.20
2023-03-07T21:51:26.818Z,2.30
2023-03-07T21:53:57.518Z,1.10
2023-03-07T21:56:24.763Z,1.38
2023-03-07T21:58:52.758Z,1.20
2023-03-07T22:01:27.834Z,1.33
2023-03-07T22:06:23.648Z,1.00
2023-03-07T22:08:51.049Z,0.90
2023-03-07T22:11:18.150Z,1.30
2023-03-07T22:13:45.457Z,1.30
2023-03-07T22:16:15.889Z,1.38
2023-03-07T22:18:43.532Z,1.17
2023-03-07T22:21:14.314Z,0.82
2023-03-07T22:23:42.447Z,1.10
2023-03-07T22:26:11.927Z,1.35
2023-03-07T22:28:40.861Z,1.40
2023-03-07T22:31:11.129Z,1.27
2023-03-07T22:33:38.956Z,1.17
2023-03-07T22:36:07.451Z,2.10
2023-03-07T22:38:35.277Z,1.08
2023-03-07T22:41:12.713Z,1.25
2023-03-07T22:43:40.011Z,1.15
2023-03-07T22:46:08.321Z,1.30
2023-03-07T22:48:35.526Z,0.75
2023-03-07T22:51:03.229Z,1.40
2023-03-07T22:53:32.290Z,1.50
2023-03-07T22:56:00.862Z,1.15
2023-03-07T22:58:29.207Z,1.25
2023-03-07T23:00:56.517Z,0.65
2023-03-07T23:03:23.877Z,1.20
2023-03-07T23:05:51.390Z,0.95
2023-03-07T23:08:18.525Z,2.13
2023-03-07T23:10:45.919Z,2.22
2023-03-07T23:13:12.967Z,0.80
2023-03-07T23:15:41.714Z,1.05
2023-03-07T23:18:09.235Z,1.00
2023-03-07T23:20:39.114Z,1.75
2023-03-07T23:23:06.585Z,1.50
2023-03-07T23:25:36.841Z,1.75
2023-03-07T23:28:04.028Z,1.60
2023-03-07T23:30:31.165Z,1.50
2023-03-07T23:32:58.402Z,2.60
2023-03-07T23:35:25.558Z,1.45
2023-03-07T23:37:53.017Z,1.77
2023-03-07T23:40:21.649Z,1.30
2023-03-07T23:42:48.823Z,1.30
2023-03-07T23:45:15.952Z,1.58
2023-03-07T23:47:43.325Z,1.52
2023-03-07T23:50:11.188Z,2.00
2023-03-07T23:52:38.374Z,1.30
2023-03-07T23:55:09.343Z,2.55
2023-03-07T23:57:37.826Z,1.95
